createdAt,value
2023-03-05T00:01:20.310Z,21.55
2023-03-05T00:03:47.205Z,20.55
2023-03-05T00:06:14.060Z,20.17
2023-03-05T00:08:40.850Z,20.40
2023-03-05T00:11:09.971Z,20.38
2023-03-05T00:13:37.767Z,21.58
2023-03-05T00:16:10.087Z,19.58
2023-03-05T00:18:38.000Z,21.48
2023-03-05T00:21:06.070Z,20.08
2023-03-05T00:23:32.855Z,19.75
2023-03-05T00:26:03.682Z,22.00
2023-03-05T00:28:30.472Z,23.33
2023-03-05T00:31:01.285Z,21.10
2023-03-05T00:33:28.575Z,22.20
2023-03-05T00:35:55.384Z,22.27
2023-03-05T00:38:22.213Z,22.85
2023-03-05T00:40:51.114Z,20.55
2023-03-05T00:43:17.979Z,21.73
2023-03-05T00:45:44.689Z,21.17
2023-03-05T00:48:11.584Z,22.20
2023-03-05T00:50:38.295Z,22.00
2023-03-05T00:53:05.223Z,22.40
2023-03-05T00:55:32.256Z,19.63
2023-03-05T00:57:59.119Z,22.05
2023-03-05T01:00:25.866Z,22.52
2023-03-05T01:02:52.554Z,20.40
2023-03-05T01:05:19.371Z,21.55
2023-03-05T01:07:46.133Z,20.10
2023-03-05T01:10:13.820Z,22.50
2023-03-05T01:12:40.660Z,22.65
2023-03-05T01:15:07.699Z,21.83
2023-03-05T01:17:34.727Z,18.77
2023-03-05T01:20:01.564Z,21.48
2023-03-05T01:22:28.847Z,21.50
2023-03-05T01:24:55.598Z,24.10
2023-03-05T01:27:22.692Z,21.85
2023-03-05T01:29:49.474Z,22.20
2023-03-05T01:32:16.253Z,21.38
2023-03-05T01:34:43.067Z,23.08
2023-03-05T01:37:10.103Z,20.80
2023-03-05T01:39:36.840Z,22.70
2023-03-05T01:42:04.341Z,20.65
2023-03-05T01:44:32.542Z,21.40
2023-03-05T01:46:59.481Z,22.65
2023-03-05T01:49:29.622Z,22.73
2023-03-05T01:52:07.610Z,20.38
2023-03-05T01:54:43.125Z,21.08
2023-03-05T01:57:18.060Z,20.92
2023-03-05T01:59:47.046Z,20.45
2023-03-05T02:02:14.556Z,22.27
2023-03-05T02:04:50.749Z,20.58
2023-03-05T02:07:18.426Z,22.75
2023-03-05T02:09:45.166Z,19.73
2023-03-05T02:12:13.010Z,20.25
2023-03-05T02:14:42.490Z,20.15
2023-03-05T02:17:10.865Z,22.95
2023-03-05T02:19:55.668Z,22.10
2023-03-05T02:22:24.701Z,20.00
2023-03-05T02:24:51.997Z,19.80
2023-03-05T02:27:23.466Z,20.33
2023-03-05T02:29:52.097Z,22.73
2023-03-05T02:32:18.839Z,19.75
2023-03-05T02:34:45.597Z,19.92
2023-03-05T02:37:12.414Z,21.20
2023-03-05T02:39:39.740Z,22.70
2023-03-05T02:42:06.961Z,22.98
2023-03-05T02:44:34.060Z,22.25
2023-03-05T02:47:01.427Z,22.05
2023-03-05T02:49:28.903Z,20.98
2023-03-05T02:52:00.728Z,22.08
2023-03-05T02:54:33.598Z,23.25
2023-03-05T02:57:00.335Z,21.77
2023-03-05T02:59:27.120Z,23.10
2023-03-05T03:01:53.841Z,24.80
2023-03-05T03:04:20.625Z,23.05
2023-03-05T03:06:47.396Z,23.73
2023-03-05T03:09:14.191Z,23.75
2023-03-05T03:11:40.979Z,25.08
2023-03-05T03:14:07.760Z,21.58
2023-03-05T03:16:35.764Z,22.90
2023-03-05T03:19:02.585Z,22.27
2023-03-05T03:21:29.530Z,22.42
2023-03-05T03:23:56.338Z,22.38
2023-03-05T03:26:23.302Z,22.15
2023-03-05T03:28:50.168Z,21.42
2023-03-05T03:31:17.436Z,25.27
2023-03-05T03:33:45.358Z,22.65
2023-03-05T03:36:12.431Z,23.02
2023-03-05T03:38:51.355Z,22.52
2023-03-05T03:41:19.393Z,23.65
2023-03-05T03:43:46.151Z,24.15
2023-03-05T03:46:12.993Z,23.05
2023-03-05T03:48:39.812Z,23.33
2023-03-05T03:51:07.813Z,24.00
2023-03-05T03:53:35.222Z,25.48
2023-03-05T03:56:01.994Z,23.83
2023-03-05T03:58:29.527Z,22.75
2023-03-05T04:00:56.238Z,25.55
2023-03-05T04:03:22.971Z,22.88
2023-03-05T04:05:49.693Z,23.13
2023-03-05T04:08:16.431Z,24.13
2023-03-05T04:10:53.595Z,22.20
2023-03-05T04:13:20.464Z,23.48
2023-03-05T04:15:47.279Z,21.63
2023-03-05T04:18:14.068Z,24.02
2023-03-05T04:20:40.788Z,22.10
2023-03-05T04:23:07.551Z,20.67
2023-03-05T04:26:10.175Z,19.95
2023-03-05T04:28:36.926Z,21.10
2023-03-05T04:31:04.161Z,20.00
2023-03-05T04:33:31.103Z,20.45
2023-03-05T04:35:57.922Z,19.80
2023-03-05T04:38:24.703Z,20.00
2023-03-05T04:40:51.729Z,21.05
2023-03-05T04:43:18.511Z,20.13
2023-03-05T04:45:45.384Z,21.10
2023-03-05T04:48:12.823Z,19.50
2023-03-05T04:50:39.847Z,22.40
2023-03-05T04:53:06.967Z,22.55
2023-03-05T04:55:33.743Z,20.02
2023-03-05T04:58:00.536Z,20.33
2023-03-05T05:00:27.393Z,20.65
2023-03-05T05:02:54.284Z,18.58
2023-03-05T05:05:28.795Z,21.80
2023-03-05T05:07:56.933Z,20.92
2023-03-05T05:10:27.252Z,22.17
2023-03-05T05:12:54.218Z,20.10
2023-03-05T05:15:21.326Z,23.98
2023-03-05T05:17:48.299Z,25.23
2023-03-05T05:20:16.728Z,23.17
2023-03-05T05:22:43.933Z,21.80
2023-03-05T05:25:11.179Z,22.20
2023-03-05T05:27:39.742Z,20.73
2023-03-05T05:30:07.702Z,21.98
2023-03-05T05:32:34.986Z,19.55
2023-03-05T05:35:01.952Z,20.05
2023-03-05T05:37:30.224Z,20.40
2023-03-05T05:39:57.038Z,22.05
2023-03-05T05:42:25.238Z,21.00
2023-03-05T05:44:52.052Z,23.30
2023-03-05T05:47:20.154Z,29.90
2023-03-05T05:49:46.960Z,22.25
2023-03-05T05:52:14.134Z,22.02
2023-03-05T05:54:40.930Z,21.63
2023-03-05T05:57:07.748Z,19.33
2023-03-05T05:59:35.422Z,20.00
2023-03-05T06:02:02.297Z,21.42
2023-03-05T06:04:29.118Z,19.83
2023-03-05T06:06:55.982Z,20.40
2023-03-05T06:09:22.756Z,20.88
2023-03-05T06:11:50.397Z,18.58
2023-03-05T06:14:17.376Z,21.00
2023-03-05T06:16:44.306Z,22.92
2023-03-05T06:19:16.088Z,19.40
2023-03-05T06:21:45.814Z,20.13
2023-03-05T06:24:12.685Z,17.75
2023-03-05T06:26:39.875Z,19.23
2023-03-05T06:29:06.813Z,20.75
2023-03-05T06:31:35.564Z,18.67
2023-03-05T06:34:03.791Z,20.33
2023-03-05T06:36:30.848Z,19.70
2023-03-05T06:38:58.496Z,22.38
2023-03-05T06:41:30.981Z,20.83
2023-03-05T06:44:00.285Z,24.48
2023-03-05T06:46:29.969Z,19.33
2023-03-05T06:48:59.296Z,22.52
2023-03-05T06:51:29.187Z,21.33
2023-03-05T06:53:59.499Z,22.42
2023-03-05T06:56:26.423Z,20.65
2023-03-05T06:58:53.573Z,21.63
2023-03-05T07:01:21.386Z,21.20
2023-03-05T07:03:53.526Z,17.60
2023-03-05T07:06:21.433Z,21.65
2023-03-05T07:08:48.849Z,20.70
2023-03-05T07:11:18.658Z,19.35
2023-03-05T07:13:49.065Z,19.80
2023-03-05T07:16:22.765Z,21.67
2023-03-05T07:18:49.863Z,20.50
2023-03-05T07:21:20.118Z,18.45
2023-03-05T07:23:47.267Z,19.00
2023-03-05T07:26:14.389Z,20.20
2023-03-05T07:28:41.911Z,19.52
2023-03-05T07:31:14.152Z,20.65
2023-03-05T07:33:41.177Z,18.95
2023-03-05T07:36:09.750Z,18.60
2023-03-05T07:38:36.826Z,19.58
2023-03-05T07:41:06.249Z,18.88
2023-03-05T07:43:33.081Z,19.95
2023-03-05T07:45:59.988Z,18.15
2023-03-05T07:48:26.965Z,19.20
2023-03-05T07:51:01.681Z,19.17
2023-03-05T07:53:28.764Z,20.95
2023-03-05T07:55:55.649Z,18.77
2023-03-05T07:58:22.579Z,19.92
2023-03-05T08:00:49.651Z,19.30
2023-03-05T08:03:16.417Z,19.55
2023-03-05T08:05:43.535Z,21.27
2023-03-05T08:08:10.647Z,18.60
2023-03-05T08:10:38.257Z,21.08
2023-03-05T08:13:05.616Z,20.42
2023-03-05T08:15:32.455Z,19.63
2023-03-05T08:17:59.775Z,18.98
2023-03-05T08:20:26.761Z,19.77
2023-03-05T08:22:53.516Z,20.38
2023-03-05T08:25:20.485Z,18.90
2023-03-05T08:27:48.245Z,25.65
2023-03-05T08:30:21.838Z,18.92
2023-03-05T08:32:51.888Z,21.33
2023-03-05T08:35:18.751Z,20.05
2023-03-05T08:37:45.760Z,18.55
2023-03-05T08:40:13.007Z,20.30
2023-03-05T08:42:39.791Z,19.17
2023-03-05T08:45:07.216Z,18.95
2023-03-05T08:47:35.048Z,19.85
2023-03-05T08:50:01.872Z,18.38
2023-03-05T08:52:28.607Z,19.27
2023-03-05T08:54:55.472Z,19.55
2023-03-05T08:57:22.241Z,18.27
2023-03-05T08:59:49.065Z,20.75
2023-03-05T09:02:15.822Z,19.77
2023-03-05T09:04:42.602Z,18.92
2023-03-05T09:07:09.551Z,17.83
2023-03-05T09:09:37.480Z,20.55
2023-03-05T09:12:04.519Z,18.63
2023-03-05T09:14:31.376Z,19.13
2023-03-05T09:16:58.381Z,20.40
2023-03-05T09:19:25.731Z,18.83
2023-03-05T09:21:53.240Z,19.83
2023-03-05T09:24:21.447Z,17.80
2023-03-05T09:26:48.308Z,17.58
2023-03-05T09:29:15.256Z,21.35
2023-03-05T09:31:43.424Z,20.75
2023-03-05T09:34:11.439Z,33.78
2023-03-05T09:36:38.331Z,28.95
2023-03-05T09:39:07.072Z,24.50
2023-03-05T09:41:54.948Z,20.98
2023-03-05T09:44:57.426Z,20.08
2023-03-05T09:47:39.680Z,19.77
2023-03-05T09:50:32.718Z,18.27
2023-03-05T09:53:07.752Z,18.63
2023-03-05T09:55:43.994Z,19.48
2023-03-05T09:58:17.755Z,20.05
2023-03-05T10:00:48.033Z,23.50
2023-03-05T10:03:35.864Z,20.13
2023-03-05T10:06:18.366Z,19.90
2023-03-05T10:08:56.284Z,17.50
2023-03-05T10:11:53.744Z,20.40
2023-03-05T10:14:30.815Z,20.38
2023-03-05T10:17:01.443Z,19.50
2023-03-05T10:19:45.803Z,17.20
2023-03-05T10:22:27.879Z,19.55
2023-03-05T10:25:24.042Z,18.23
2023-03-05T10:27:55.178Z,21.42
2023-03-05T10:30:43.474Z,17.85
2023-03-05T10:33:30.903Z,19.65
2023-03-05T10:36:20.565Z,19.88
2023-03-05T10:39:09.299Z,19.75
2023-03-05T10:41:48.360Z,19.40
2023-03-05T10:44:18.728Z,20.48
2023-03-05T10:46:47.574Z,18.92
2023-03-05T10:49:28.793Z,18.35
2023-03-05T10:52:06.561Z,18.20
2023-03-05T10:54:35.840Z,18.45
2023-03-05T10:57:04.919Z,19.48
2023-03-05T10:59:32.436Z,17.90
2023-03-05T11:02:05.529Z,19.35
2023-03-05T11:04:36.725Z,19.42
2023-03-05T11:07:26.800Z,19.13
2023-03-05T11:10:15.240Z,19.88
2023-03-05T11:12:42.486Z,19.58
2023-03-05T11:15:12.220Z,18.33
2023-03-05T11:17:47.877Z,19.17
2023-03-05T11:20:31.980Z,19.23
2023-03-05T11:23:09.489Z,17.48
2023-03-05T11:25:58.942Z,17.02
2023-03-05T11:28:36.305Z,18.20
2023-03-05T11:31:15.499Z,18.98
2023-03-05T11:33:56.383Z,17.15
2023-03-05T11:36:25.150Z,17.73
2023-03-05T11:38:51.866Z,19.73
2023-03-05T11:41:24.748Z,17.73
2023-03-05T11:43:54.252Z,18.85
2023-03-05T11:46:22.266Z,18.90
2023-03-05T11:48:50.281Z,16.35
2023-03-05T11:51:26.704Z,19.33
2023-03-05T11:53:59.379Z,16.42
2023-03-05T11:56:30.567Z,15.48
2023-03-05T11:59:04.098Z,16.73
2023-03-05T12:01:40.298Z,15.38
2023-03-05T12:04:08.739Z,18.63
2023-03-05T12:06:50.254Z,17.83
2023-03-05T12:09:33.854Z,18.42
2023-03-05T12:12:35.995Z,19.45
2023-03-05T12:15:18.243Z,17.13
2023-03-05T12:18:05.361Z,17.25
2023-03-05T12:21:04.407Z,15.38
2023-03-05T12:23:51.991Z,17.80
2023-03-05T12:26:19.308Z,17.75
2023-03-05T12:28:46.503Z,15.90
2023-03-05T12:31:38.056Z,17.00
2023-03-05T12:34:43.040Z,17.60
2023-03-05T12:37:33.071Z,15.70
2023-03-05T12:40:08.496Z,19.33
2023-03-05T12:42:51.342Z,16.67
2023-03-05T12:45:19.962Z,18.70
2023-03-05T12:47:56.540Z,25.20
2023-03-05T12:50:29.382Z,16.35
2023-03-05T12:53:16.602Z,16.50
2023-03-05T12:56:04.144Z,15.90
2023-03-05T12:58:43.136Z,45.88
2023-03-05T13:01:31.887Z,16.80
2023-03-05T13:04:05.149Z,16.45
2023-03-05T13:06:35.254Z,16.15
2023-03-05T13:09:07.605Z,16.75
2023-03-05T13:11:37.787Z,16.38
2023-03-05T13:14:04.694Z,17.77
2023-03-05T13:16:38.643Z,16.15
2023-03-05T13:19:16.337Z,16.80
2023-03-05T13:21:43.560Z,13.80
2023-03-05T13:24:17.735Z,14.40
2023-03-05T13:26:44.555Z,13.45
2023-03-05T13:29:13.212Z,12.75
2023-03-05T13:32:17.725Z,12.77
2023-03-05T13:34:48.131Z,13.13
2023-03-05T13:37:16.885Z,12.80
2023-03-05T13:39:49.115Z,8.80
2023-03-05T13:42:23.290Z,9.38
2023-03-05T13:45:19.395Z,9.15
2023-03-05T13:47:57.081Z,7.68
2023-03-05T13:50:29.580Z,8.60
2023-03-05T13:52:58.382Z,7.40
2023-03-05T13:55:26.131Z,8.07
2023-03-05T13:57:53.645Z,9.65
2023-03-05T14:00:26.577Z,8.48
2023-03-05T14:02:55.192Z,8.40
2023-03-05T14:05:22.508Z,8.00
2023-03-05T14:07:51.247Z,8.90
2023-03-05T14:10:36.061Z,8.25
2023-03-05T14:13:14.706Z,9.27
2023-03-05T14:15:41.640Z,9.35
2023-03-05T14:18:08.610Z,8.88
2023-03-05T14:20:35.473Z,9.18
2023-03-05T14:23:26.820Z,8.85
2023-03-05T14:26:11.037Z,8.95
2023-03-05T14:28:38.413Z,7.70
2023-03-05T14:31:16.168Z,8.40
2023-03-05T14:33:44.207Z,9.27
2023-03-05T14:36:11.782Z,8.63
2023-03-05T14:38:43.362Z,8.98
2023-03-05T14:41:36.071Z,7.82
2023-03-05T14:44:09.010Z,7.78
2023-03-05T14:46:35.766Z,8.50
2023-03-05T14:49:02.639Z,7.55
2023-03-05T14:51:29.962Z,10.15
2023-03-05T14:53:58.799Z,8.02
2023-03-05T14:56:29.312Z,10.50
2023-03-05T14:58:57.593Z,7.40
2023-03-05T15:01:25.439Z,7.60
2023-03-05T15:03:52.343Z,9.65
2023-03-05T15:06:28.314Z,7.53
2023-03-05T15:08:55.160Z,11.80
2023-03-05T15:11:22.876Z,7.97
2023-03-05T15:13:52.678Z,8.32
2023-03-05T15:16:20.444Z,8.00
2023-03-05T15:18:47.942Z,7.68
2023-03-05T15:21:15.154Z,9.05
2023-03-05T15:23:44.149Z,7.57
2023-03-05T15:26:13.851Z,8.48
2023-03-05T15:28:41.727Z,8.13
2023-03-05T15:31:08.635Z,9.25
2023-03-05T15:33:35.955Z,7.95
2023-03-05T15:36:03.076Z,9.13
2023-03-05T15:38:29.826Z,7.80
2023-03-05T15:40:56.681Z,8.32
2023-03-05T15:43:23.438Z,7.90
2023-03-05T15:45:50.137Z,8.43
2023-03-05T15:48:16.947Z,8.82
2023-03-05T15:50:44.217Z,8.07
2023-03-05T15:53:16.190Z,6.70
2023-03-05T15:55:43.892Z,8.20
2023-03-05T15:58:14.937Z,7.43
2023-03-05T16:00:41.859Z,6.95
2023-03-05T16:03:08.820Z,8.57
2023-03-05T16:05:37.462Z,8.18
2023-03-05T16:08:04.355Z,7.63
2023-03-05T16:10:31.495Z,7.55
2023-03-05T16:13:06.604Z,9.27
2023-03-05T16:15:35.184Z,8.07
2023-03-05T16:18:06.201Z,8.35
2023-03-05T16:20:33.157Z,8.10
2023-03-05T16:23:00.028Z,8.63
2023-03-05T16:25:26.897Z,8.40
2023-03-05T16:27:53.808Z,10.15
2023-03-05T16:30:21.123Z,9.25
2023-03-05T16:32:47.925Z,8.38
2023-03-05T16:35:15.099Z,7.90
2023-03-05T16:37:42.423Z,7.40
2023-03-05T16:40:11.353Z,8.70
2023-03-05T16:42:38.289Z,8.55
2023-03-05T16:45:06.621Z,8.07
2023-03-05T16:47:33.452Z,8.35
2023-03-05T16:50:00.975Z,9.45
2023-03-05T16:52:28.535Z,9.77
2023-03-05T16:54:55.396Z,9.18
2023-03-05T16:57:24.054Z,10.55
2023-03-05T16:59:51.789Z,8.23
2023-03-05T17:02:18.673Z,8.93
2023-03-05T17:04:46.058Z,8.40
2023-03-05T17:07:12.909Z,8.90
2023-03-05T17:09:39.896Z,9.80
2023-03-05T17:12:07.113Z,9.43
2023-03-05T17:14:33.948Z,9.95
2023-03-05T17:17:01.445Z,9.30
2023-03-05T17:19:28.475Z,10.05
2023-03-05T17:21:55.271Z,9.50
2023-03-05T17:24:22.758Z,12.05
2023-03-05T17:26:50.114Z,9.73
2023-03-05T17:29:18.922Z,9.60
2023-03-05T17:31:46.765Z,10.27
2023-03-05T17:34:14.389Z,8.82
2023-03-05T17:36:41.285Z,10.55
2023-03-05T17:39:08.878Z,10.48
2023-03-05T17:41:35.824Z,10.95
2023-03-05T17:44:02.679Z,11.48
2023-03-05T17:46:29.633Z,11.98
2023-03-05T17:48:56.540Z,12.07
2023-03-05T17:51:23.312Z,10.50
2023-03-05T17:53:50.290Z,9.52
2023-03-05T17:56:17.461Z,9.70
2023-03-05T17:58:44.324Z,9.18
2023-03-05T18:01:11.162Z,11.18
2023-03-05T18:03:39.391Z,9.75
2023-03-05T18:06:06.401Z,10.10
2023-03-05T18:08:33.302Z,10.00
2023-03-05T18:11:00.432Z,10.77
2023-03-05T18:13:27.282Z,10.57
2023-03-05T18:15:57.381Z,10.10
2023-03-05T18:18:24.245Z,10.57
2023-03-05T18:20:51.164Z,11.50
2023-03-05T18:23:17.924Z,8.98
2023-03-05T18:25:45.159Z,11.57
2023-03-05T18:28:14.325Z,10.52
2023-03-05T18:30:42.998Z,9.20
2023-03-05T18:33:19.626Z,10.10
2023-03-05T18:35:48.306Z,10.60
2023-03-05T18:38:15.300Z,12.70
2023-03-05T18:40:42.539Z,11.10
2023-03-05T18:43:10.215Z,11.15
2023-03-05T18:45:37.079Z,9.95
2023-03-05T18:48:03.943Z,11.68
2023-03-05T18:50:31.091Z,10.88
2023-03-05T18:52:57.890Z,9.95
2023-03-05T18:55:28.843Z,10.50
2023-03-05T18:57:55.960Z,9.43
2023-03-05T19:00:26.533Z,9.77
2023-03-05T19:02:53.855Z,11.18
2023-03-05T19:05:20.797Z,11.50
2023-03-05T19:07:48.291Z,11.57
2023-03-05T19:10:16.187Z,10.90
2023-03-05T19:12:55.260Z,12.50
2023-03-05T19:15:22.517Z,11.43
2023-03-05T19:17:49.901Z,11.35
2023-03-05T19:20:17.886Z,10.80
2023-03-05T19:22:44.828Z,12.18
2023-03-05T19:25:11.746Z,11.07
2023-03-05T19:27:39.002Z,11.70
2023-03-05T19:30:07.832Z,12.25
2023-03-05T19:32:35.162Z,13.63
2023-03-05T19:35:02.813Z,13.65
2023-03-05T19:37:31.289Z,11.77
2023-03-05T19:39:58.191Z,11.30
2023-03-05T19:42:25.212Z,12.13
2023-03-05T19:44:51.947Z,12.63
2023-03-05T19:47:18.796Z,11.00
2023-03-05T19:49:45.512Z,12.07
2023-03-05T19:52:13.956Z,11.35
2023-03-05T19:54:40.714Z,11.48
2023-03-05T19:57:09.615Z,13.43
2023-03-05T19:59:36.340Z,12.70
2023-03-05T20:02:03.244Z,12.90
2023-03-05T20:04:30.019Z,13.18
2023-03-05T20:06:56.931Z,11.77
2023-03-05T20:09:23.714Z,14.13
2023-03-05T20:11:51.277Z,12.70
2023-03-05T20:14:18.116Z,14.57
2023-03-05T20:16:44.998Z,14.13
2023-03-05T20:19:17.377Z,15.13
2023-03-05T20:21:45.043Z,14.35
2023-03-05T20:24:14.602Z,14.20
2023-03-05T20:26:42.443Z,14.63
2023-03-05T20:29:09.722Z,13.63
2023-03-05T20:31:37.815Z,13.63
2023-03-05T20:34:09.447Z,14.73
2023-03-05T20:36:36.415Z,15.05
2023-03-05T20:39:04.834Z,16.05
2023-03-05T20:41:33.659Z,14.38
2023-03-05T20:44:00.478Z,15.95
2023-03-05T20:46:29.785Z,15.13
2023-03-05T20:48:59.135Z,14.77
2023-03-05T20:51:32.758Z,14.57
2023-03-05T20:54:03.912Z,17.88
2023-03-05T20:56:32.736Z,16.70
2023-03-05T20:59:01.136Z,14.65
2023-03-05T21:01:28.401Z,16.00
2023-03-05T21:03:57.199Z,17.65
2023-03-05T21:06:26.272Z,15.05
2023-03-05T21:08:53.431Z,16.02
2023-03-05T21:11:20.385Z,16.63
2023-03-05T21:13:47.251Z,15.82
2023-03-05T21:16:18.207Z,15.40
2023-03-05T21:18:45.184Z,15.18
2023-03-05T21:21:12.270Z,15.20
2023-03-05T21:23:39.073Z,16.00
2023-03-05T21:26:06.371Z,14.75
2023-03-05T21:28:33.290Z,16.20
2023-03-05T21:31:10.086Z,15.40
2023-03-05T21:33:37.453Z,15.63
2023-03-05T21:36:05.151Z,16.75
2023-03-05T21:38:34.150Z,16.77
2023-03-05T21:41:02.322Z,17.20
2023-03-05T21:43:31.203Z,15.48
2023-03-05T21:45:59.612Z,15.40
2023-03-05T21:48:26.546Z,16.25
2023-03-05T21:50:54.776Z,16.65
2023-03-05T21:53:22.167Z,15.15
2023-03-05T21:56:21.013Z,14.27
2023-03-05T21:58:48.732Z,15.10
2023-03-05T22:01:18.509Z,15.70
2023-03-05T22:03:46.037Z,14.40
2023-03-05T22:06:14.859Z,16.58
2023-03-05T22:08:41.844Z,16.90
2023-03-05T22:11:13.365Z,15.30
2023-03-05T22:13:40.552Z,16.33
2023-03-05T22:16:09.202Z,18.08
2023-03-05T22:18:36.637Z,13.63
2023-03-05T22:21:04.222Z,15.65
2023-03-05T22:23:34.595Z,16.00
2023-03-05T22:26:06.245Z,18.17
2023-03-05T22:28:34.016Z,15.77
2023-03-05T22:31:01.065Z,16.52
2023-03-05T22:33:28.909Z,14.90
2023-03-05T22:35:56.031Z,15.75
2023-03-05T22:38:22.981Z,16.00
2023-03-05T22:40:50.596Z,16.30
2023-03-05T22:43:19.724Z,16.17
2023-03-05T22:45:46.537Z,16.00
2023-03-05T22:48:13.352Z,16.38
2023-03-05T22:50:42.154Z,18.88
2023-03-05T22:53:09.088Z,15.57
2023-03-05T22:55:40.094Z,16.58
2023-03-05T22:58:06.905Z,15.10
2023-03-05T23:00:33.708Z,14.82
2023-03-05T23:03:00.515Z,15.43
2023-03-05T23:05:27.324Z,16.40
2023-03-05T23:07:54.049Z,16.00
2023-03-05T23:10:26.673Z,14.88
2023-03-05T23:12:55.197Z,15.80
2023-03-05T23:15:27.788Z,14.52
2023-03-05T23:17:54.937Z,15.55
2023-03-05T23:20:24.742Z,15.23
2023-03-05T23:22:56.140Z,15.18
2023-03-05T23:25:24.911Z,14.68
2023-03-05T23:27:52.273Z,15.13
2023-03-05T23:30:20.708Z,14.10
2023-03-05T23:32:52.316Z,16.98
2023-03-05T23:35:26.418Z,14.38
2023-03-05T23:37:55.167Z,18.88
2023-03-05T23:40:25.249Z,20.60
2023-03-05T23:42:53.665Z,17.92
2023-03-05T23:45:21.588Z,16.50
2023-03-05T23:47:49.350Z,17.73
2023-03-05T23:50:19.537Z,15.80
2023-03-05T23:52:47.073Z,16.48
2023-03-05T23:55:29.244Z,14.77
2023-03-05T23:57:56.043Z,16.15
